sensor_id;sensor_type;location;lat;lon;timestamp;pressure;altitude;pressure_sealevel;temperature
24714;BMP280;12820;51.580;5.010;2023-12-14T00:03:28;100959.56;;;10.62
24714;BMP280;12820;51.580;5.010;2023-12-14T00:08:30;100980.56;;;10.56
24714;BMP280;12820;51.580;5.010;2023-12-14T00:13:32;100990.66;;;10.52
24714;BMP280;12820;51.580;5.010;2023-12-14T00:18:36;101010.78;;;10.49
24714;BMP280;12820;51.580;5.010;2023-12-14T00:23:38;101013.34;;;10.45
24714;BMP280;12820;51.580;5.010;2023-12-14T00:28:40;101021.78;;;10.39
24714;BMP280;12820;51.580;5.010;2023-12-14T00:33:42;101031.03;;;10.34
24714;BMP280;12820;51.580;5.010;2023-12-14T00:38:45;101041.13;;;10.30
24714;BMP280;12820;51.580;5.010;2023-12-14T00:43:48;101039.50;;;10.25
24714;BMP280;12820;51.580;5.010;2023-12-14T00:48:50;101068.00;;;10.21
24714;BMP280;12820;51.580;5.010;2023-12-14T00:53:52;101068.91;;;10.15
24714;BMP280;12820;51.580;5.010;2023-12-14T00:58:55;101074.00;;;10.10
24714;BMP280;12820;51.580;5.010;2023-12-14T01:03:57;101084.88;;;10.07
24714;BMP280;12820;51.580;5.010;2023-12-14T01:09:01;101089.09;;;10.04
24714;BMP280;12820;51.580;5.010;2023-12-14T01:14:03;101099.19;;;9.99
24714;BMP280;12820;51.580;5.010;2023-12-14T01:19:06;101104.22;;;9.98
24714;BMP280;12820;51.580;5.010;2023-12-14T01:24:08;101115.97;;;9.93
24714;BMP280;12820;51.580;5.010;2023-12-14T01:29:11;101129.34;;;9.92
24714;BMP280;12820;51.580;5.010;2023-12-14T01:34:13;101136.91;;;9.88
24714;BMP280;12820;51.580;5.010;2023-12-14T01:39:17;101157.03;;;9.85
24714;BMP280;12820;51.580;5.010;2023-12-14T01:44:19;101176.31;;;9.81
24714;BMP280;12820;51.580;5.010;2023-12-14T01:49:21;101186.34;;;9.78
24714;BMP280;12820;51.580;5.010;2023-12-14T01:54:23;101193.03;;;9.74
24714;BMP280;12820;51.580;5.010;2023-12-14T01:59:25;101200.59;;;9.71
24714;BMP280;12820;51.580;5.010;2023-12-14T02:04:28;101201.47;;;9.67
24714;BMP280;12820;51.580;5.010;2023-12-14T02:09:30;101213.16;;;9.65
24714;BMP280;12820;51.580;5.010;2023-12-14T02:14:32;101230.72;;;9.63
24714;BMP280;12820;51.580;5.010;2023-12-14T02:19:34;101234.09;;;9.61
24714;BMP280;12820;51.580;5.010;2023-12-14T02:24:37;101239.13;;;9.59
24714;BMP280;12820;51.580;5.010;2023-12-14T02:29:39;101239.13;;;9.57
24714;BMP280;12820;51.580;5.010;2023-12-14T02:34:42;101248.34;;;9.55
24714;BMP280;12820;51.580;5.010;2023-12-14T02:39:44;101255.88;;;9.52
24714;BMP280;12820;51.580;5.010;2023-12-14T02:44:49;101273.44;;;9.50
24714;BMP280;12820;51.580;5.010;2023-12-14T02:49:51;101281.81;;;9.49
24714;BMP280;12820;51.580;5.010;2023-12-14T02:54:53;101281.00;;;9.47
24714;BMP280;12820;51.580;5.010;2023-12-14T02:59:56;101280.97;;;9.46
24714;BMP280;12820;51.580;5.010;2023-12-14T03:04:58;101296.03;;;9.44
24714;BMP280;12820;51.580;5.010;2023-12-14T03:10:02;101296.88;;;9.43
24714;BMP280;12820;51.580;5.010;2023-12-14T03:15:04;101295.22;;;9.42
24714;BMP280;12820;51.580;5.010;2023-12-14T03:20:07;101302.75;;;9.41
24714;BMP280;12820;51.580;5.010;2023-12-14T03:25:09;101306.06;;;9.40
24714;BMP280;12820;51.580;5.010;2023-12-14T03:30:12;101314.44;;;9.39
24714;BMP280;12820;51.580;5.010;2023-12-14T03:35:14;101314.44;;;9.39
24714;BMP280;12820;51.580;5.010;2023-12-14T03:40:16;101318.63;;;9.37
24714;BMP280;12820;51.580;5.010;2023-12-14T03:45:18;101319.47;;;9.36
24714;BMP280;12820;51.580;5.010;2023-12-14T03:50:21;101332.03;;;9.33
24714;BMP280;12820;51.580;5.010;2023-12-14T03:55:23;101326.19;;;9.34
24714;BMP280;12820;51.580;5.010;2023-12-14T04:00:25;101337.88;;;9.32
24714;BMP280;12820;51.580;5.010;2023-12-14T04:05:27;101347.06;;;9.35
24714;BMP280;12820;51.580;5.010;2023-12-14T04:10:55;101354.59;;;9.33
24714;BMP280;12820;51.580;5.010;2023-12-14T04:15:57;101370.47;;;9.32
24714;BMP280;12820;51.580;5.010;2023-12-14T04:21:00;101368.78;;;9.30
24714;BMP280;12820;51.580;5.010;2023-12-14T04:26:02;101391.41;;;9.28
24714;BMP280;12820;51.580;5.010;2023-12-14T04:31:04;101398.09;;;9.29
24714;BMP280;12820;51.580;5.010;2023-12-14T04:36:07;101402.25;;;9.27
24714;BMP280;12820;51.580;5.010;2023-12-14T04:41:09;101423.16;;;9.26
24714;BMP280;12820;51.580;5.010;2023-12-14T04:46:11;101433.19;;;9.26
24714;BMP280;12820;51.580;5.010;2023-12-14T04:51:13;101437.34;;;9.26
24714;BMP280;12820;51.580;5.010;2023-12-14T04:56:15;101444.91;;;9.24
24714;BMP280;12820;51.580;5.010;2023-12-14T05:01:17;101454.09;;;9.24
24714;BMP280;12820;51.580;5.010;2023-12-14T05:06:20;101460.75;;;9.21
24714;BMP280;12820;51.580;5.010;2023-12-14T05:11:22;101476.66;;;9.17
24714;BMP280;12820;51.580;5.010;2023-12-14T05:16:24;101495.03;;;9.16
24714;BMP280;12820;51.580;5.010;2023-12-14T05:21:28;101515.94;;;9.16
24714;BMP280;12820;51.580;5.010;2023-12-14T05:26:30;101526.81;;;9.17
24714;BMP280;12820;51.580;5.010;2023-12-14T05:31:32;101525.97;;;9.16
24714;BMP280;12820;51.580;5.010;2023-12-14T05:36:35;101546.88;;;9.17
24714;BMP280;12820;51.580;5.010;2023-12-14T05:41:41;101549.38;;;9.15
24714;BMP280;12820;51.580;5.010;2023-12-14T05:46:43;101559.41;;;9.14
24714;BMP280;12820;51.580;5.010;2023-12-14T05:51:46;101563.56;;;9.12
24714;BMP280;12820;51.580;5.010;2023-12-14T05:56:48;101580.28;;;9.11
24714;BMP280;12820;51.580;5.010;2023-12-14T06:01:59;101583.63;;;9.09
24714;BMP280;12820;51.580;5.010;2023-12-14T06:07:01;101588.66;;;9.09
24714;BMP280;12820;51.580;5.010;2023-12-14T06:12:04;101589.47;;;9.05
24714;BMP280;12820;51.580;5.010;2023-12-14T06:17:07;101614.53;;;9.05
24714;BMP280;12820;51.580;5.010;2023-12-14T06:22:09;101615.38;;;9.04
24714;BMP280;12820;51.580;5.010;2023-12-14T06:27:11;101614.50;;;9.02
24714;BMP280;12820;51.580;5.010;2023-12-14T06:32:13;101627.06;;;8.99
24714;BMP280;12820;51.580;5.010;2023-12-14T06:37:15;101633.72;;;8.97
24714;BMP280;12820;51.580;5.010;2023-12-14T06:42:17;101641.25;;;8.96
24714;BMP280;12820;51.580;5.010;2023-12-14T06:47:20;101664.63;;;8.93
24714;BMP280;12820;51.580;5.010;2023-12-14T06:52:23;101673.81;;;8.91
24714;BMP280;12820;51.580;5.010;2023-12-14T06:57:25;101688.03;;;8.91
24714;BMP280;12820;51.580;5.010;2023-12-14T07:02:29;101706.38;;;8.90
24714;BMP280;12820;51.580;5.010;2023-12-14T07:07:31;101708.88;;;8.88
24714;BMP280;12820;51.580;5.010;2023-12-14T07:12:33;101708.88;;;8.86
24714;BMP280;12820;51.580;5.010;2023-12-14T07:17:35;101714.72;;;8.85
24714;BMP280;12820;51.580;5.010;2023-12-14T07:22:38;101732.25;;;8.82
24714;BMP280;12820;51.580;5.010;2023-12-14T07:27:40;101743.06;;;8.79
24714;BMP280;12820;51.580;5.010;2023-12-14T07:32:42;101743.91;;;8.77
24714;BMP280;12820;51.580;5.010;2023-12-14T07:37:45;101755.56;;;8.75
24714;BMP280;12820;51.580;5.010;2023-12-14T07:42:47;101753.03;;;8.73
24714;BMP280;12820;51.580;5.010;2023-12-14T07:47:49;101755.56;;;8.72
24714;BMP280;12820;51.580;5.010;2023-12-14T07:52:52;101757.19;;;8.67
24714;BMP280;12820;51.580;5.010;2023-12-14T07:57:54;101773.88;;;8.68
24714;BMP280;12820;51.580;5.010;2023-12-14T08:02:56;101782.25;;;8.69
24714;BMP280;12820;51.580;5.010;2023-12-14T08:07:59;101789.78;;;8.67
24714;BMP280;12820;51.580;5.010;2023-12-14T08:13:01;101797.28;;;8.67
24714;BMP280;12820;51.580;5.010;2023-12-14T08:18:04;101812.31;;;8.67
24714;BMP280;12820;51.580;5.010;2023-12-14T08:23:06;101819.00;;;8.67
24714;BMP280;12820;51.580;5.010;2023-12-14T08:28:09;101814.81;;;8.69
24714;BMP280;12820;51.580;5.010;2023-12-14T08:33:11;101818.16;;;8.69
24714;BMP280;12820;51.580;5.010;2023-12-14T08:38:13;101837.41;;;8.73
24714;BMP280;12820;51.580;5.010;2023-12-14T08:43:15;101851.63;;;8.74
24714;BMP280;12820;51.580;5.010;2023-12-14T08:48:18;101862.53;;;8.76
24714;BMP280;12820;51.580;5.010;2023-12-14T08:53:21;101878.41;;;8.76
24714;BMP280;12820;51.580;5.010;2023-12-14T08:58:23;101883.41;;;8.78
24714;BMP280;12820;51.580;5.010;2023-12-14T09:03:25;101894.31;;;8.80
24714;BMP280;12820;51.580;5.010;2023-12-14T09:08:28;101904.34;;;8.83
24714;BMP280;12820;51.580;5.010;2023-12-14T09:13:31;101917.78;;;8.87
24714;BMP280;12820;51.580;5.010;2023-12-14T09:18:33;101918.66;;;8.92
24714;BMP280;12820;51.580;5.010;2023-12-14T09:23:35;101931.25;;;8.95
24714;BMP280;12820;51.580;5.010;2023-12-14T09:28:37;101942.16;;;9.02
24714;BMP280;12820;51.580;5.010;2023-12-14T09:33:39;101948.09;;;9.11
24714;BMP280;12820;51.580;5.010;2023-12-14T09:38:42;101953.22;;;9.25
24714;BMP280;12820;51.580;5.010;2023-12-14T09:43:45;101958.41;;;9.44
24714;BMP280;12820;51.580;5.010;2023-12-14T09:48:50;101979.50;;;9.65
24714;BMP280;12820;51.580;5.010;2023-12-14T09:53:53;101979.72;;;9.92
24714;BMP280;12820;51.580;5.010;2023-12-14T09:59:00;101978.22;;;10.20
24714;BMP280;12820;51.580;5.010;2023-12-14T10:04:13;101977.50;;;10.41
24714;BMP280;12820;51.580;5.010;2023-12-14T10:09:22;101981.72;;;10.54
24714;BMP280;12820;51.580;5.010;2023-12-14T10:14:25;101985.97;;;10.65
24714;BMP280;12820;51.580;5.010;2023-12-14T10:19:29;102001.91;;;10.73
24714;BMP280;12820;51.580;5.010;2023-12-14T10:24:32;102016.19;;;10.75
24714;BMP280;12820;51.580;5.010;2023-12-14T10:29:37;102016.19;;;10.75
24714;BMP280;12820;51.580;5.010;2023-12-14T10:34:40;102014.50;;;10.67
24714;BMP280;12820;51.580;5.010;2023-12-14T10:39:45;102010.28;;;10.66
24714;BMP280;12820;51.580;5.010;2023-12-14T10:44:51;102015.31;;;10.69
24714;BMP280;12820;51.580;5.010;2023-12-14T10:49:59;102033.75;;;10.72
24714;BMP280;12820;51.580;5.010;2023-12-14T10:55:09;102026.22;;;10.66
24714;BMP280;12820;51.580;5.010;2023-12-14T11:00:13;102041.31;;;10.66
24714;BMP280;12820;51.580;5.010;2023-12-14T11:05:18;102043.00;;;10.70
24714;BMP280;12820;51.580;5.010;2023-12-14T11:10:36;102051.38;;;10.72
24714;BMP280;12820;51.580;5.010;2023-12-14T11:15:40;102046.38;;;10.75
24714;BMP280;12820;51.580;5.010;2023-12-14T11:25:50;102056.50;;;10.99
24714;BMP280;12820;51.580;5.010;2023-12-14T11:31:02;102057.41;;;11.09
24714;BMP280;12820;51.580;5.010;2023-12-14T11:36:08;102059.94;;;11.18
24714;BMP280;12820;51.580;5.010;2023-12-14T11:41:11;102067.56;;;11.33
24714;BMP280;12820;51.580;5.010;2023-12-14T11:46:14;102070.09;;;11.47
24714;BMP280;12820;51.580;5.010;2023-12-14T11:51:17;102068.44;;;11.67
24714;BMP280;12820;51.580;5.010;2023-12-14T11:56:20;102063.41;;;11.84
24714;BMP280;12820;51.580;5.010;2023-12-14T12:01:24;102075.16;;;11.97
24714;BMP280;12820;51.580;5.010;2023-12-14T12:06:28;102076.84;;;11.95
24714;BMP280;12820;51.580;5.010;2023-12-14T12:11:30;102082.72;;;11.91
24714;BMP280;12820;51.580;5.010;2023-12-14T12:16:33;102076.81;;;11.86
24714;BMP280;12820;51.580;5.010;2023-12-14T12:21:38;102078.50;;;11.78
24714;BMP280;12820;51.580;5.010;2023-12-14T12:26:40;102078.50;;;11.72
24714;BMP280;12820;51.580;5.010;2023-12-14T12:31:42;102082.69;;;11.76
24714;BMP280;12820;51.580;5.010;2023-12-14T12:36:45;102094.47;;;11.86
24714;BMP280;12820;51.580;5.010;2023-12-14T12:41:48;102097.84;;;11.90
24714;BMP280;12820;51.580;5.010;2023-12-14T12:46:50;102096.16;;;11.87
24714;BMP280;12820;51.580;5.010;2023-12-14T12:52:09;102105.41;;;11.85
24714;BMP280;12820;51.580;5.010;2023-12-14T12:57:11;102097.84;;;11.75
24714;BMP280;12820;51.580;5.010;2023-12-14T13:02:14;102104.53;;;11.60
24714;BMP280;12820;51.580;5.010;2023-12-14T13:07:17;102111.22;;;11.49
24714;BMP280;12820;51.580;5.010;2023-12-14T13:12:20;102115.41;;;11.41
24714;BMP280;12820;51.580;5.010;2023-12-14T13:17:22;102110.34;;;11.33
24714;BMP280;12820;51.580;5.010;2023-12-14T13:22:25;102119.50;;;11.22
24714;BMP280;12820;51.580;5.010;2023-12-14T13:27:32;102122.00;;;11.13
24714;BMP280;12820;51.580;5.010;2023-12-14T13:32:35;102132.03;;;11.04
24714;BMP280;12820;51.580;5.010;2023-12-14T13:37:37;102130.31;;;10.95
24714;BMP280;12820;51.580;5.010;2023-12-14T13:42:40;102136.94;;;10.87
24714;BMP280;12820;51.580;5.010;2023-12-14T13:48:00;102141.97;;;10.81
24714;BMP280;12820;51.580;5.010;2023-12-14T13:53:02;102151.97;;;10.77
24714;BMP280;12820;51.580;5.010;2023-12-14T13:58:05;102161.16;;;10.69
24714;BMP280;12820;51.580;5.010;2023-12-14T14:03:07;102172.06;;;10.66
24714;BMP280;12820;51.580;5.010;2023-12-14T14:08:10;102175.34;;;10.60
24714;BMP280;12820;51.580;5.010;2023-12-14T14:13:19;102173.63;;;10.51
24714;BMP280;12820;51.580;5.010;2023-12-14T14:18:23;102192.84;;;10.47
24714;BMP280;12820;51.580;5.010;2023-12-14T14:23:25;102193.66;;;10.43
24714;BMP280;12820;51.580;5.010;2023-12-14T14:28:28;102202.84;;;10.41
24714;BMP280;12820;51.580;5.010;2023-12-14T14:33:31;102211.22;;;10.40
24714;BMP280;12820;51.580;5.010;2023-12-14T14:38:33;102222.06;;;10.34
24714;BMP280;12820;51.580;5.010;2023-12-14T14:43:35;102224.53;;;10.27
24714;BMP280;12820;51.580;5.010;2023-12-14T14:48:38;102247.94;;;10.23
24714;BMP280;12820;51.580;5.010;2023-12-14T14:53:40;102242.88;;;10.20
24714;BMP280;12820;51.580;5.010;2023-12-14T14:58:45;102245.34;;;10.16
24714;BMP280;12820;51.580;5.010;2023-12-14T15:03:48;102257.91;;;10.16
24714;BMP280;12820;51.580;5.010;2023-12-14T15:08:51;102257.03;;;10.11
24714;BMP280;12820;51.580;5.010;2023-12-14T15:13:54;102263.66;;;10.03
24714;BMP280;12820;51.580;5.010;2023-12-14T15:18:56;102274.44;;;9.94
24714;BMP280;12820;51.580;5.010;2023-12-14T15:23:59;102283.53;;;9.84
24714;BMP280;12820;51.580;5.010;2023-12-14T15:29:01;102281.69;;;9.75
24714;BMP280;12820;51.580;5.010;2023-12-14T15:34:04;102283.25;;;9.65
24714;BMP280;12820;51.580;5.010;2023-12-14T15:39:08;102300.72;;;9.57
24714;BMP280;12820;51.580;5.010;2023-12-14T15:44:11;102307.28;;;9.49
24714;BMP280;12820;51.580;5.010;2023-12-14T15:49:13;102303.03;;;9.42
24714;BMP280;12820;51.580;5.010;2023-12-14T15:54:15;102316.38;;;9.38
24714;BMP280;12820;51.580;5.010;2023-12-14T15:59:18;102329.69;;;9.34
24714;BMP280;12820;51.580;5.010;2023-12-14T16:04:20;102333.00;;;9.32
24714;BMP280;12820;51.580;5.010;2023-12-14T16:09:22;102342.16;;;9.28
24714;BMP280;12820;51.580;5.010;2023-12-14T16:14:24;102347.94;;;9.24
24714;BMP280;12820;51.580;5.010;2023-12-14T16:19:27;102364.63;;;9.23
24714;BMP280;12820;51.580;5.010;2023-12-14T16:24:29;102371.28;;;9.19
24714;BMP280;12820;51.580;5.010;2023-12-14T16:29:32;102366.19;;;9.16
24714;BMP280;12820;51.580;5.010;2023-12-14T16:34:39;102370.38;;;9.14
24714;BMP280;12820;51.580;5.010;2023-12-14T16:39:41;102374.50;;;9.12
24714;BMP280;12820;51.580;5.010;2023-12-14T16:44:43;102387.06;;;9.14
24714;BMP280;12820;51.580;5.010;2023-12-14T16:49:46;102390.38;;;9.11
24714;BMP280;12820;51.580;5.010;2023-12-14T16:54:48;102398.72;;;9.10
24714;BMP280;12820;51.580;5.010;2023-12-14T16:59:50;102394.53;;;9.11
24714;BMP280;12820;51.580;5.010;2023-12-14T17:04:55;102399.56;;;9.11
24714;BMP280;12820;51.580;5.010;2023-12-14T17:09:57;102414.59;;;9.11
24714;BMP280;12820;51.580;5.010;2023-12-14T17:14:59;102410.44;;;9.11
24714;BMP280;12820;51.580;5.010;2023-12-14T17:20:01;102412.09;;;9.11
24714;BMP280;12820;51.580;5.010;2023-12-14T17:25:05;102420.47;;;9.11
24714;BMP280;12820;51.580;5.010;2023-12-14T17:30:08;102418.81;;;9.10
24714;BMP280;12820;51.580;5.010;2023-12-14T17:35:11;102428.81;;;9.09
24714;BMP280;12820;51.580;5.010;2023-12-14T17:40:13;102423.75;;;9.07
24714;BMP280;12820;51.580;5.010;2023-12-14T17:45:15;102422.00;;;9.04
24714;BMP280;12820;51.580;5.010;2023-12-14T17:50:18;102425.31;;;9.01
24714;BMP280;12820;51.580;5.010;2023-12-14T17:55:20;102431.13;;;8.99
24714;BMP280;12820;51.580;5.010;2023-12-14T18:00:22;102432.75;;;8.97
24714;BMP280;12820;51.580;5.010;2023-12-14T18:05:24;102439.41;;;8.95
24714;BMP280;12820;51.580;5.010;2023-12-14T18:10:26;102450.25;;;8.94
24714;BMP280;12820;51.580;5.010;2023-12-14T18:15:29;102462.72;;;8.89
24714;BMP280;12820;51.580;5.010;2023-12-14T18:20:31;102464.34;;;8.87
24714;BMP280;12820;51.580;5.010;2023-12-14T18:25:34;102476.81;;;8.83
24714;BMP280;12820;51.580;5.010;2023-12-14T18:30:36;102480.06;;;8.79
24714;BMP280;12820;51.580;5.010;2023-12-14T18:35:39;102485.00;;;8.75
24714;BMP280;12820;51.580;5.010;2023-12-14T18:40:41;102486.59;;;8.70
24714;BMP280;12820;51.580;5.010;2023-12-14T18:45:44;102502.38;;;8.66
24714;BMP280;12820;51.580;5.010;2023-12-14T18:50:46;102505.66;;;8.62
24714;BMP280;12820;51.580;5.010;2023-12-14T18:55:48;102508.97;;;8.61
24714;BMP280;12820;51.580;5.010;2023-12-14T19:00:51;102523.97;;;8.60
24714;BMP280;12820;51.580;5.010;2023-12-14T19:05:53;102528.97;;;8.58
24714;BMP280;12820;51.580;5.010;2023-12-14T19:10:56;102536.44;;;8.57
24714;BMP280;12820;51.580;5.010;2023-12-14T19:15:58;102540.56;;;8.55
24714;BMP280;12820;51.580;5.010;2023-12-14T19:21:00;102538.88;;;8.52
24714;BMP280;12820;51.580;5.010;2023-12-14T19:26:02;102544.69;;;8.52
24714;BMP280;12820;51.580;5.010;2023-12-14T19:31:04;102550.47;;;8.49
24714;BMP280;12820;51.580;5.010;2023-12-14T19:36:08;102556.28;;;8.47
24714;BMP280;12820;51.580;5.010;2023-12-14T19:41:13;102552.88;;;8.45
24714;BMP280;12820;51.580;5.010;2023-12-14T19:46:15;102566.19;;;8.42
24714;BMP280;12820;51.580;5.010;2023-12-14T19:51:18;102575.38;;;8.42
24714;BMP280;12820;51.580;5.010;2023-12-14T19:56:20;102579.59;;;8.43
24714;BMP280;12820;51.580;5.010;2023-12-14T20:01:22;102593.81;;;8.45
24714;BMP280;12820;51.580;5.010;2023-12-14T20:06:31;102588.91;;;8.50
24714;BMP280;12820;51.580;5.010;2023-12-14T20:11:34;102600.66;;;8.52
24714;BMP280;12820;51.580;5.010;2023-12-14T20:16:36;102604.06;;;8.55
24714;BMP280;12820;51.580;5.010;2023-12-14T20:21:39;102600.84;;;8.61
24714;BMP280;12820;51.580;5.010;2023-12-14T20:26:41;102608.41;;;8.62
24714;BMP280;12820;51.580;5.010;2023-12-14T20:31:43;102618.53;;;8.67
24714;BMP280;12820;51.580;5.010;2023-12-14T20:36:45;102622.84;;;8.72
24714;BMP280;12820;51.580;5.010;2023-12-14T20:41:47;102629.59;;;8.76
24714;BMP280;12820;51.580;5.010;2023-12-14T20:46:49;102631.34;;;8.80
24714;BMP280;12820;51.580;5.010;2023-12-14T20:51:51;102635.56;;;8.82
24714;BMP280;12820;51.580;5.010;2023-12-14T20:56:53;102645.75;;;8.88
24714;BMP280;12820;51.580;5.010;2023-12-14T21:01:56;102642.47;;;8.90
24714;BMP280;12820;51.580;5.010;2023-12-14T21:06:59;102649.19;;;8.93
24714;BMP280;12820;51.580;5.010;2023-12-14T21:12:01;102652.59;;;8.95
24714;BMP280;12820;51.580;5.010;2023-12-14T21:17:04;102656.81;;;8.97
24714;BMP280;12820;51.580;5.010;2023-12-14T21:22:06;102660.19;;;8.99
24714;BMP280;12820;51.580;5.010;2023-12-14T21:27:10;102662.75;;;9.01
24714;BMP280;12820;51.580;5.010;2023-12-14T21:32:30;102661.94;;;9.03
24714;BMP280;12820;51.580;5.010;2023-12-14T21:37:33;102662.81;;;9.04
24714;BMP280;12820;51.580;5.010;2023-12-14T21:42:36;102671.22;;;9.05
24714;BMP280;12820;51.580;5.010;2023-12-14T21:47:38;102674.63;;;9.09
24714;BMP280;12820;51.580;5.010;2023-12-14T21:52:40;102677.13;;;9.09
24714;BMP280;12820;51.580;5.010;2023-12-14T21:57:43;102687.22;;;9.10
24714;BMP280;12820;51.580;5.010;2023-12-14T22:02:45;102684.72;;;9.12
24714;BMP280;12820;51.580;5.010;2023-12-14T22:07:47;102684.78;;;9.15
24714;BMP280;12820;51.580;5.010;2023-12-14T22:12:50;102693.97;;;9.16
24714;BMP280;12820;51.580;5.010;2023-12-14T22:17:52;102695.69;;;9.17
24714;BMP280;12820;51.580;5.010;2023-12-14T22:22:54;102696.53;;;9.17
24714;BMP280;12820;51.580;5.010;2023-12-14T22:27:56;102686.50;;;9.17
24714;BMP280;12820;51.580;5.010;2023-12-14T22:32:59;102698.19;;;9.17
24714;BMP280;12820;51.580;5.010;2023-12-14T22:38:01;102710.78;;;9.18
24714;BMP280;12820;51.580;5.010;2023-12-14T22:43:06;102720.81;;;9.18
24714;BMP280;12820;51.580;5.010;2023-12-14T22:48:08;102740.06;;;9.19
24714;BMP280;12820;51.580;5.010;2023-12-14T22:53:10;102750.13;;;9.21
24714;BMP280;12820;51.580;5.010;2023-12-14T22:58:24;102752.63;;;9.21
24714;BMP280;12820;51.580;5.010;2023-12-14T23:03:26;102748.47;;;9.20
24714;BMP280;12820;51.580;5.010;2023-12-14T23:08:29;102742.59;;;9.21
24714;BMP280;12820;51.580;5.010;2023-12-14T23:13:31;102747.63;;;9.21
24714;BMP280;12820;51.580;5.010;2023-12-14T23:18:33;102743.44;;;9.21
24714;BMP280;12820;51.580;5.010;2023-12-14T23:23:36;102743.44;;;9.20
24714;BMP280;12820;51.580;5.010;2023-12-14T23:28:38;102753.47;;;9.20
24714;BMP280;12820;51.580;5.010;2023-12-14T23:33:40;102756.81;;;9.20
24714;BMP280;12820;51.580;5.010;2023-12-14T23:38:42;102758.50;;;9.20
24714;BMP280;12820;51.580;5.010;2023-12-14T23:43:46;102757.63;;;9.19
24714;BMP280;12820;51.580;5.010;2023-12-14T23:48:49;102750.13;;;9.19
24714;BMP280;12820;51.580;5.010;2023-12-14T23:53:51;102777.72;;;9.21
24714;BMP280;12820;51.580;5.010;2023-12-14T23:58:54;102787.75;;;9.21
